首页
METAR-TAF:

METAR-TAF

机场 :

杜拜, 阿拉伯联合酋长国

迪拜国际机场

纬度: 25-15-10N, 经度: 055-21-52E, 海拔: 8米

当前天气观测

该预报发布于55分钟前的06:00 UTC
风速5节,风向西南,在西转西北之间变化
温度 35°C
湿度 34%
气压 1011 hPa
能見度: 8000

METAR: OMDB 250600Z 22005KT 170V300 8000 NSC 35/17 Q1011 NOSIG

时间: 10:55 (06:55 UTC)

预报

该预报发布于1小时和59分钟前的04:56 UTC
预报有效从25日的 06点(UTC)到 26日的 12点(UTC)
风速5节,风向南转西南
能见度10公里或以上
1500米以下无云,无积雨云
成为
从 25日的 07点(UTC)到 25日的 09点(UTC)
风速17节,风向西北
成为
从 25日的 15点(UTC)到 25日的 17点(UTC)
风速5节,风向东南
成为
从 26日的 07点(UTC)到 26日的 09点(UTC)
风速13节,风向西北

TAF: OMDB 250456Z 2506/2612 20005KT CAVOK BECMG 2507/2509 32017KT BECMG 2515/2517 14005KT BECMG 2607/2609 32013KT

超过4000个机场的气象观测和天气预报(METAR&TAF报告)。

可查询的气象台以黄色和红色小点在地图上表示。

将鼠标移到小点上方,可查看气象台名称。

然后点击查看天气观测和预报。

如需切换地图:点击带黑十字的绿色按钮放大地图;点击带横线的绿色按钮缩小地图;或者点击绿色箭头查看邻近地区的地图。


METAR-TAF: